createdAt,value
2022-11-09T00:01:47.387Z,1.98
2022-11-09T00:04:49.047Z,2.30
2022-11-09T00:07:50.468Z,2.42
2022-11-09T00:10:52.042Z,1.92
2022-11-09T00:13:53.705Z,2.25
2022-11-09T00:16:55.095Z,1.95
2022-11-09T00:19:56.577Z,2.05
2022-11-09T00:22:58.222Z,1.95
2022-11-09T00:26:04.677Z,2.00
2022-11-09T00:29:06.241Z,2.20
2022-11-09T00:32:07.683Z,1.80
2022-11-09T00:35:09.285Z,1.98
2022-11-09T00:38:10.723Z,1.90
2022-11-09T00:41:13.120Z,2.13
2022-11-09T00:44:14.594Z,1.58
2022-11-09T00:47:16.045Z,1.98
2022-11-09T00:50:17.484Z,1.85
2022-11-09T00:53:20.271Z,2.03
2022-11-09T00:56:22.023Z,1.90
2022-11-09T00:59:24.285Z,1.80
2022-11-09T01:02:25.886Z,1.80
2022-11-09T01:05:27.359Z,1.85
2022-11-09T01:08:28.969Z,2.30
2022-11-09T01:11:30.524Z,2.17
2022-11-09T01:14:31.994Z,2.25
2022-11-09T01:17:33.440Z,2.28
2022-11-09T01:20:38.835Z,1.85
2022-11-09T01:23:41.278Z,2.05
2022-11-09T01:26:42.742Z,2.03
2022-11-09T01:29:44.213Z,1.90
2022-11-09T01:32:45.632Z,1.95
2022-11-09T01:35:47.162Z,1.90
2022-11-09T01:38:49.609Z,2.20
2022-11-09T01:41:51.188Z,2.10
2022-11-09T01:45:17.544Z,2.05
2022-11-09T01:48:27.759Z,2.42
2022-11-09T01:51:35.079Z,2.10
2022-11-09T01:54:41.753Z,1.88
2022-11-09T01:57:57.927Z,1.80
2022-11-09T02:01:00.810Z,1.90
2022-11-09T02:04:13.359Z,2.35
2022-11-09T02:07:15.138Z,2.30
2022-11-09T02:10:23.261Z,1.98
2022-11-09T02:13:27.746Z,2.28
2022-11-09T02:16:29.949Z,2.28
2022-11-09T02:19:31.401Z,2.13
2022-11-09T02:22:32.952Z,2.22
2022-11-09T02:25:34.356Z,2.08
2022-11-09T02:28:38.447Z,2.45
2022-11-09T02:31:45.029Z,2.03
2022-11-09T02:34:48.104Z,2.22
2022-11-09T02:37:50.498Z,1.80
2022-11-09T02:40:52.931Z,1.90
2022-11-09T02:43:55.141Z,2.22
2022-11-09T02:46:56.707Z,2.10
2022-11-09T02:49:59.998Z,2.00
2022-11-09T02:53:01.864Z,1.95
2022-11-09T02:56:03.434Z,2.70
2022-11-09T02:59:05.019Z,2.28
2022-11-09T03:02:08.243Z,2.53
2022-11-09T03:05:10.384Z,2.20
2022-11-09T03:08:15.184Z,2.00
2022-11-09T03:11:17.116Z,2.13
2022-11-09T03:14:18.731Z,2.25
2022-11-09T03:17:27.806Z,2.30
2022-11-09T03:20:29.345Z,2.42
2022-11-09T03:23:30.845Z,2.58
2022-11-09T03:26:33.132Z,2.10
2022-11-09T03:29:34.810Z,2.05
2022-11-09T03:32:37.392Z,2.10
2022-11-09T03:35:40.657Z,2.25
2022-11-09T03:38:42.673Z,2.08
2022-11-09T03:41:44.562Z,1.65
2022-11-09T03:44:46.172Z,2.28
2022-11-09T03:47:47.857Z,1.77
2022-11-09T03:50:49.264Z,2.42
2022-11-09T03:53:50.695Z,1.85
2022-11-09T03:56:52.094Z,2.15
2022-11-09T03:59:53.544Z,2.15
2022-11-09T04:02:55.030Z,2.05
2022-11-09T04:05:58.703Z,1.77
2022-11-09T04:09:00.350Z,2.33
2022-11-09T04:12:01.826Z,2.10
2022-11-09T04:15:03.454Z,1.75
2022-11-09T04:18:04.913Z,1.80
2022-11-09T04:21:06.441Z,2.30
2022-11-09T04:24:07.936Z,1.95
2022-11-09T04:27:09.343Z,2.25
2022-11-09T04:30:11.012Z,1.70
2022-11-09T04:33:12.417Z,2.10
2022-11-09T04:36:13.868Z,2.00
2022-11-09T04:39:15.756Z,2.22
2022-11-09T04:42:17.190Z,2.30
2022-11-09T04:45:19.625Z,1.98
2022-11-09T04:48:21.131Z,1.95
2022-11-09T04:51:22.684Z,1.63
2022-11-09T04:54:24.106Z,1.88
2022-11-09T04:57:25.595Z,1.90
2022-11-09T05:00:27.099Z,1.77
2022-11-09T05:03:28.621Z,2.08
2022-11-09T05:06:30.140Z,1.70
2022-11-09T05:09:31.663Z,2.38
2022-11-09T05:12:33.064Z,1.90
2022-11-09T05:15:35.596Z,1.70
2022-11-09T05:18:37.022Z,2.53
2022-11-09T05:21:38.498Z,2.25
2022-11-09T05:24:39.885Z,2.50
2022-11-09T05:27:41.301Z,2.00
2022-11-09T05:30:42.760Z,2.13
2022-11-09T05:33:44.468Z,1.90
2022-11-09T05:36:45.848Z,2.45
2022-11-09T05:39:47.300Z,2.08
2022-11-09T05:42:48.745Z,2.42
2022-11-09T05:45:50.416Z,2.03
2022-11-09T05:48:51.861Z,2.47
2022-11-09T05:51:53.371Z,2.30
2022-11-09T05:54:54.880Z,2.40
2022-11-09T05:57:56.504Z,2.38
2022-11-09T06:00:58.019Z,2.13
2022-11-09T06:03:59.465Z,2.40
2022-11-09T06:07:01.692Z,2.13
2022-11-09T06:10:03.960Z,2.63
2022-11-09T06:13:05.442Z,1.63
2022-11-09T06:16:07.409Z,1.85
2022-11-09T06:19:08.851Z,2.20
2022-11-09T06:22:10.382Z,2.42
2022-11-09T06:25:11.866Z,2.03
2022-11-09T06:28:13.295Z,2.03
2022-11-09T06:31:16.718Z,2.50
2022-11-09T06:34:18.181Z,2.42
2022-11-09T06:37:19.659Z,2.95
2022-11-09T06:40:21.071Z,2.72
2022-11-09T06:43:23.587Z,2.40
2022-11-09T06:46:25.174Z,2.42
2022-11-09T06:49:26.636Z,3.17
2022-11-09T06:52:28.095Z,2.35
2022-11-09T06:55:31.202Z,2.10
2022-11-09T06:58:33.220Z,2.47
2022-11-09T07:01:34.811Z,2.63
2022-11-09T07:04:36.269Z,2.80
2022-11-09T07:07:37.761Z,2.63
2022-11-09T07:10:40.037Z,2.58
2022-11-09T07:13:41.996Z,2.28
2022-11-09T07:16:43.399Z,2.20
2022-11-09T07:19:45.080Z,2.78
2022-11-09T07:22:49.729Z,3.05
2022-11-09T07:25:51.120Z,2.38
2022-11-09T07:28:52.543Z,2.83
2022-11-09T07:31:54.137Z,2.78
2022-11-09T07:34:55.548Z,2.67
2022-11-09T07:38:00.753Z,2.05
2022-11-09T07:41:02.266Z,2.28
2022-11-09T07:44:04.424Z,2.85
2022-11-09T07:47:05.905Z,2.85
2022-11-09T07:50:07.527Z,2.58
2022-11-09T07:53:12.198Z,3.95
2022-11-09T07:56:13.676Z,3.03
2022-11-09T07:59:15.101Z,2.40
2022-11-09T08:02:16.587Z,2.90
2022-11-09T08:05:18.341Z,2.72
2022-11-09T08:08:19.792Z,2.70
2022-11-09T08:11:21.568Z,2.88
2022-11-09T08:14:23.020Z,2.25
2022-11-09T08:17:24.472Z,2.63
2022-11-09T08:20:26.226Z,2.63
2022-11-09T08:23:27.624Z,3.05
2022-11-09T08:26:29.028Z,3.03
2022-11-09T08:29:30.410Z,2.85
2022-11-09T08:32:31.907Z,3.08
2022-11-09T08:35:33.890Z,2.40
2022-11-09T08:38:35.824Z,2.53
2022-11-09T08:41:37.491Z,3.22
2022-11-09T08:44:38.897Z,3.03
2022-11-09T08:47:40.879Z,2.33
2022-11-09T08:50:42.296Z,3.03
2022-11-09T08:53:43.695Z,2.20
2022-11-09T08:56:45.102Z,2.25
2022-11-09T08:59:46.624Z,2.38
2022-11-09T09:02:48.471Z,2.75
2022-11-09T09:05:49.893Z,2.67
2022-11-09T09:08:51.319Z,3.10
2022-11-09T09:11:52.747Z,3.03
2022-11-09T09:14:54.160Z,3.20
2022-11-09T09:17:55.725Z,2.80
2022-11-09T09:20:57.140Z,4.00
2022-11-09T09:23:58.545Z,3.10
2022-11-09T09:26:59.958Z,3.38
2022-11-09T09:30:01.397Z,3.15
2022-11-09T09:33:02.865Z,3.15
2022-11-09T09:36:04.613Z,3.40
2022-11-09T09:39:06.478Z,2.65
2022-11-09T09:42:16.201Z,2.95
2022-11-09T09:45:25.982Z,3.28
2022-11-09T09:48:40.875Z,2.92
2022-11-09T09:51:52.266Z,2.60
2022-11-09T09:55:03.235Z,2.35
2022-11-09T09:58:16.404Z,3.00
2022-11-09T10:01:23.639Z,3.28
2022-11-09T10:04:41.472Z,2.95
2022-11-09T10:07:46.029Z,3.38
2022-11-09T10:11:15.212Z,3.30
2022-11-09T10:14:45.311Z,2.50
2022-11-09T10:18:08.182Z,2.25
2022-11-09T10:21:31.695Z,3.05
2022-11-09T10:25:27.506Z,2.90
2022-11-09T10:28:54.236Z,2.10
2022-11-09T10:31:55.631Z,3.00
2022-11-09T10:35:16.809Z,2.83
2022-11-09T10:38:27.495Z,2.60
2022-11-09T10:41:47.276Z,2.67
2022-11-09T10:45:25.222Z,2.40
2022-11-09T10:48:45.462Z,2.30
2022-11-09T10:52:26.488Z,2.20
2022-11-09T10:56:11.647Z,2.20
2022-11-09T10:59:31.640Z,2.60
2022-11-09T11:02:52.139Z,2.20
2022-11-09T11:06:18.568Z,2.22
2022-11-09T11:09:38.860Z,1.83
2022-11-09T11:12:58.795Z,2.20
2022-11-09T11:16:21.565Z,2.03
2022-11-09T11:19:41.581Z,1.90
2022-11-09T11:23:14.553Z,2.28
2022-11-09T11:26:42.352Z,1.73
2022-11-09T11:30:05.425Z,1.83
2022-11-09T11:33:25.525Z,2.05
2022-11-09T11:37:07.091Z,1.15
2022-11-09T11:40:35.903Z,1.02
2022-11-09T11:44:23.763Z,1.20
2022-11-09T11:48:03.738Z,1.08
2022-11-09T11:51:23.527Z,1.20
2022-11-09T11:55:07.406Z,1.02
2022-11-09T11:58:39.131Z,1.17
2022-11-09T12:02:41.108Z,1.10
2022-11-09T12:06:18.066Z,1.58
2022-11-09T12:09:40.702Z,1.60
2022-11-09T12:13:05.650Z,1.60
2022-11-09T12:16:46.428Z,1.45
2022-11-09T12:20:24.980Z,1.58
2022-11-09T12:24:01.556Z,1.98
2022-11-09T12:27:50.410Z,1.75
2022-11-09T12:31:34.180Z,1.98
2022-11-09T12:35:03.396Z,1.83
2022-11-09T12:38:29.536Z,1.70
2022-11-09T12:41:53.841Z,2.17
2022-11-09T12:45:49.832Z,1.63
2022-11-09T12:49:34.784Z,1.67
2022-11-09T12:52:55.706Z,1.60
2022-11-09T12:56:22.483Z,1.30
2022-11-09T12:59:51.187Z,1.33
2022-11-09T13:03:39.089Z,1.60
2022-11-09T13:07:07.664Z,0.90
2022-11-09T13:10:38.089Z,1.17
2022-11-09T13:14:22.571Z,2.30
2022-11-09T13:17:59.706Z,1.45
2022-11-09T13:21:22.283Z,1.20
2022-11-09T13:24:54.179Z,1.30
2022-11-09T13:28:41.304Z,1.45
2022-11-09T13:32:13.399Z,1.30
2022-11-09T13:35:42.159Z,1.70
2022-11-09T13:39:29.461Z,1.20
2022-11-09T13:43:08.595Z,1.58
2022-11-09T13:46:38.465Z,1.40
2022-11-09T13:49:58.714Z,1.20
2022-11-09T13:53:30.835Z,1.40
2022-11-09T13:56:52.852Z,1.40
2022-11-09T14:00:22.672Z,1.10
2022-11-09T14:03:51.276Z,2.15
2022-11-09T14:07:24.455Z,1.40
2022-11-09T14:11:06.804Z,1.40
2022-11-09T14:14:41.512Z,1.63
2022-11-09T14:18:19.805Z,1.30
2022-11-09T14:21:47.076Z,1.70
2022-11-09T14:25:13.693Z,1.75
2022-11-09T14:28:34.347Z,1.80
2022-11-09T14:31:54.948Z,1.90
2022-11-09T14:35:20.699Z,1.73
2022-11-09T14:38:47.271Z,2.10
2022-11-09T14:42:08.040Z,1.90
2022-11-09T14:45:29.003Z,1.58
2022-11-09T14:48:54.269Z,1.50
2022-11-09T14:52:18.033Z,1.67
2022-11-09T14:55:39.332Z,1.70
2022-11-09T14:59:01.100Z,1.10
2022-11-09T15:02:23.356Z,1.35
2022-11-09T15:05:43.304Z,1.30
2022-11-09T15:09:07.307Z,1.50
2022-11-09T15:12:28.008Z,1.60
2022-11-09T15:15:53.219Z,1.15
2022-11-09T15:19:30.190Z,1.60
2022-11-09T15:23:00.931Z,1.30
2022-11-09T15:26:42.157Z,2.17
2022-11-09T15:30:02.320Z,1.67
2022-11-09T15:33:29.039Z,1.50
2022-11-09T15:36:54.557Z,1.90
2022-11-09T15:40:17.612Z,2.47
2022-11-09T15:43:38.239Z,1.70
2022-11-09T15:46:58.860Z,1.42
2022-11-09T15:50:23.340Z,1.45
2022-11-09T15:53:43.631Z,1.33
2022-11-09T15:57:04.672Z,1.10
2022-11-09T16:00:25.072Z,1.33
2022-11-09T16:03:44.991Z,1.33
2022-11-09T16:07:06.179Z,0.88
2022-11-09T16:10:26.299Z,1.60
2022-11-09T16:13:46.183Z,1.55
2022-11-09T16:17:06.579Z,1.38
2022-11-09T16:20:26.977Z,2.08
2022-11-09T16:23:47.144Z,1.15
2022-11-09T16:27:16.924Z,1.23
2022-11-09T16:30:46.584Z,1.13
2022-11-09T16:34:07.225Z,0.88
2022-11-09T16:37:31.196Z,1.25
2022-11-09T16:40:51.138Z,1.88
2022-11-09T16:44:13.187Z,1.50
2022-11-09T16:47:37.863Z,1.10
2022-11-09T16:50:58.410Z,2.45
2022-11-09T16:54:18.472Z,2.17
2022-11-09T16:57:38.701Z,2.22
2022-11-09T17:01:17.579Z,1.70
2022-11-09T17:04:38.900Z,1.95
2022-11-09T17:07:59.101Z,1.95
2022-11-09T17:11:19.342Z,1.45
2022-11-09T17:14:39.346Z,1.60
2022-11-09T17:17:59.272Z,1.98
2022-11-09T17:21:20.642Z,2.20
2022-11-09T17:24:40.993Z,1.95
2022-11-09T17:28:01.214Z,2.33
2022-11-09T17:31:24.808Z,2.10
2022-11-09T17:34:44.932Z,2.05
2022-11-09T17:38:04.816Z,1.60
2022-11-09T17:41:24.698Z,1.35
2022-11-09T17:44:44.422Z,1.42
2022-11-09T17:48:04.858Z,1.23
2022-11-09T17:51:24.877Z,1.38
2022-11-09T17:54:45.144Z,1.55
2022-11-09T17:58:06.260Z,2.08
2022-11-09T18:01:26.102Z,1.65
2022-11-09T18:04:46.075Z,1.67
2022-11-09T18:08:07.905Z,1.63
2022-11-09T18:11:28.072Z,1.50
2022-11-09T18:14:48.268Z,1.75
2022-11-09T18:18:08.078Z,2.05
2022-11-09T18:21:28.464Z,1.85
2022-11-09T18:24:48.494Z,1.55
2022-11-09T18:28:11.519Z,1.75
2022-11-09T18:31:31.309Z,1.70
2022-11-09T18:34:51.317Z,2.55
2022-11-09T18:38:13.257Z,4.43
2022-11-09T18:41:33.255Z,3.90
2022-11-09T18:44:53.395Z,3.38
2022-11-09T18:48:13.535Z,3.38
2022-11-09T18:51:33.706Z,2.85
2022-11-09T18:54:53.901Z,2.25
2022-11-09T18:58:14.123Z,5.28
2022-11-09T19:01:33.894Z,2.60
2022-11-09T19:04:54.079Z,2.42
2022-11-09T19:08:14.009Z,1.65
2022-11-09T19:11:34.174Z,2.30
2022-11-09T19:14:54.064Z,2.15
2022-11-09T19:18:14.085Z,2.42
2022-11-09T19:21:36.272Z,2.65
2022-11-09T19:24:56.410Z,2.50
2022-11-09T19:28:16.487Z,2.63
2022-11-09T19:31:37.317Z,2.92
2022-11-09T19:34:57.200Z,3.10
2022-11-09T19:38:17.048Z,2.88
2022-11-09T19:41:37.296Z,2.70
2022-11-09T19:44:57.456Z,8.85
2022-11-09T19:48:17.626Z,3.67
2022-11-09T19:51:38.628Z,3.28
2022-11-09T19:54:58.737Z,3.85
2022-11-09T19:58:19.039Z,3.53
2022-11-09T20:01:39.817Z,3.20
2022-11-09T20:04:59.828Z,3.30
2022-11-09T20:08:20.389Z,3.28
2022-11-09T20:11:40.699Z,3.25
2022-11-09T20:15:00.776Z,2.85
2022-11-09T20:18:21.431Z,2.72
2022-11-09T20:21:42.408Z,3.20
2022-11-09T20:25:02.789Z,2.85
2022-11-09T20:28:22.999Z,3.53
2022-11-09T20:31:43.386Z,2.92
2022-11-09T20:35:04.082Z,2.63
2022-11-09T20:38:24.999Z,2.58
2022-11-09T20:41:45.379Z,2.50
2022-11-09T20:45:05.829Z,2.55
2022-11-09T20:48:52.263Z,2.92
2022-11-09T20:52:07.896Z,3.15
2022-11-09T20:55:27.708Z,2.65
2022-11-09T20:58:47.606Z,3.33
2022-11-09T21:02:13.682Z,2.83
2022-11-09T21:05:33.484Z,2.55
2022-11-09T21:08:54.967Z,2.83
2022-11-09T21:12:15.145Z,3.55
2022-11-09T21:15:35.300Z,3.30
2022-11-09T21:18:55.632Z,3.35
2022-11-09T21:22:15.777Z,3.35
2022-11-09T21:25:36.853Z,3.88
2022-11-09T21:28:56.774Z,3.72
2022-11-09T21:32:18.616Z,3.88
2022-11-09T21:35:38.816Z,4.20
2022-11-09T21:38:58.771Z,3.83
2022-11-09T21:42:18.538Z,4.00
2022-11-09T21:45:38.417Z,5.15
2022-11-09T21:48:58.381Z,3.72
2022-11-09T21:52:18.498Z,4.00
2022-11-09T21:55:38.456Z,3.53
2022-11-09T21:58:58.828Z,3.83
2022-11-09T22:02:18.856Z,3.47
2022-11-09T22:05:41.664Z,3.88
2022-11-09T22:09:01.640Z,3.60
2022-11-09T22:12:21.880Z,3.75
2022-11-09T22:15:41.944Z,3.80
2022-11-09T22:19:02.635Z,3.17
2022-11-09T22:22:22.568Z,2.97
2022-11-09T22:25:47.626Z,2.33
2022-11-09T22:29:08.028Z,2.47
2022-11-09T22:32:28.347Z,2.10
2022-11-09T22:35:59.443Z,2.00
2022-11-09T22:39:19.312Z,1.92
2022-11-09T22:42:39.040Z,2.17
2022-11-09T22:46:10.857Z,2.40
2022-11-09T22:49:30.976Z,2.50
2022-11-09T22:52:54.013Z,3.88
2022-11-09T22:56:14.189Z,2.80
2022-11-09T22:59:34.032Z,3.72
2022-11-09T23:02:57.271Z,4.43
2022-11-09T23:06:19.565Z,4.70
2022-11-09T23:09:39.853Z,5.40
2022-11-09T23:13:00.132Z,6.05
2022-11-09T23:16:20.421Z,5.75
2022-11-09T23:19:40.501Z,4.68
2022-11-09T23:23:00.696Z,5.10
2022-11-09T23:26:21.423Z,4.60
2022-11-09T23:29:41.435Z,4.97
2022-11-09T23:33:02.359Z,4.88
2022-11-09T23:36:24.060Z,4.60
2022-11-09T23:39:43.954Z,4.85
2022-11-09T23:43:08.926Z,4.60
2022-11-09T23:46:29.036Z,4.40
2022-11-09T23:49:49.325Z,5.20
2022-11-09T23:53:09.999Z,4.15
2022-11-09T23:56:29.976Z,4.57
2022-11-09T23:59:50.167Z,4.43
